sensor_id;sensor_type;location;lat;lon;timestamp;P1;durP1;ratioP1;P2;durP2;ratioP2
13660;SDS011;6903;49.480;11.102;2022-09-20T00:00:45;16.30;;;10.37;;
13660;SDS011;6903;49.480;11.102;2022-09-20T00:03:12;20.63;;;11.67;;
13660;SDS011;6903;49.480;11.102;2022-09-20T00:05:39;22.50;;;11.63;;
13660;SDS011;6903;49.480;11.102;2022-09-20T00:08:09;17.37;;;10.07;;
13660;SDS011;6903;49.480;11.102;2022-09-20T00:10:36;23.60;;;12.00;;
13660;SDS011;6903;49.480;11.102;2022-09-20T00:13:04;17.07;;;10.77;;
13660;SDS011;6903;49.480;11.102;2022-09-20T00:15:31;19.33;;;10.93;;
13660;SDS011;6903;49.480;11.102;2022-09-20T00:17:57;17.23;;;10.23;;
13660;SDS011;6903;49.480;11.102;2022-09-20T00:20:23;14.70;;;9.43;;
13660;SDS011;6903;49.480;11.102;2022-09-20T00:22:49;16.83;;;9.93;;
13660;SDS011;6903;49.480;11.102;2022-09-20T00:25:15;13.47;;;8.77;;
13660;SDS011;6903;49.480;11.102;2022-09-20T00:27:41;18.43;;;9.47;;
13660;SDS011;6903;49.480;11.102;2022-09-20T00:30:07;13.80;;;8.43;;
13660;SDS011;6903;49.480;11.102;2022-09-20T00:32:33;16.57;;;9.23;;
13660;SDS011;6903;49.480;11.102;2022-09-20T00:34:58;12.87;;;7.20;;
13660;SDS011;6903;49.480;11.102;2022-09-20T00:37:34;9.53;;;6.57;;
13660;SDS011;6903;49.480;11.102;2022-09-20T00:40:01;11.30;;;6.97;;
13660;SDS011;6903;49.480;11.102;2022-09-20T00:42:28;16.30;;;9.77;;
13660;SDS011;6903;49.480;11.102;2022-09-20T00:44:58;14.97;;;8.47;;
13660;SDS011;6903;49.480;11.102;2022-09-20T00:47:26;13.13;;;7.80;;
13660;SDS011;6903;49.480;11.102;2022-09-20T00:50:05;10.20;;;6.77;;
13660;SDS011;6903;49.480;11.102;2022-09-20T00:52:37;12.23;;;7.40;;
13660;SDS011;6903;49.480;11.102;2022-09-20T00:55:04;16.97;;;9.50;;
13660;SDS011;6903;49.480;11.102;2022-09-20T00:57:32;19.70;;;8.93;;
13660;SDS011;6903;49.480;11.102;2022-09-20T01:00:00;14.47;;;8.57;;
13660;SDS011;6903;49.480;11.102;2022-09-20T01:02:30;16.30;;;9.03;;
13660;SDS011;6903;49.480;11.102;2022-09-20T01:04:57;13.57;;;8.97;;
13660;SDS011;6903;49.480;11.102;2022-09-20T01:07:23;17.03;;;10.17;;
13660;SDS011;6903;49.480;11.102;2022-09-20T01:09:50;18.07;;;10.43;;
13660;SDS011;6903;49.480;11.102;2022-09-20T01:12:19;22.40;;;10.80;;
13660;SDS011;6903;49.480;11.102;2022-09-20T01:14:49;13.37;;;8.57;;
13660;SDS011;6903;49.480;11.102;2022-09-20T01:17:16;12.27;;;7.83;;
13660;SDS011;6903;49.480;11.102;2022-09-20T01:25:17;15.60;;;9.37;;
13660;SDS011;6903;49.480;11.102;2022-09-20T01:27:59;17.00;;;9.70;;
13660;SDS011;6903;49.480;11.102;2022-09-20T01:30:25;17.13;;;11.40;;
13660;SDS011;6903;49.480;11.102;2022-09-20T01:33:20;18.23;;;11.27;;
13660;SDS011;6903;49.480;11.102;2022-09-20T01:35:52;16.10;;;9.77;;
13660;SDS011;6903;49.480;11.102;2022-09-20T01:38:28;18.23;;;11.53;;
13660;SDS011;6903;49.480;11.102;2022-09-20T01:41:05;21.07;;;11.53;;
13660;SDS011;6903;49.480;11.102;2022-09-20T01:46:33;21.03;;;11.13;;
13660;SDS011;6903;49.480;11.102;2022-09-20T01:49:08;15.57;;;9.97;;
13660;SDS011;6903;49.480;11.102;2022-09-20T02:00:38;19.53;;;11.40;;
13660;SDS011;6903;49.480;11.102;2022-09-20T02:03:42;17.27;;;11.00;;
13660;SDS011;6903;49.480;11.102;2022-09-20T02:15:22;19.93;;;11.17;;
13660;SDS011;6903;49.480;11.102;2022-09-20T02:20:50;19.23;;;11.03;;
13660;SDS011;6903;49.480;11.102;2022-09-20T02:26:46;25.07;;;12.00;;
13660;SDS011;6903;49.480;11.102;2022-09-20T02:29:31;19.90;;;11.17;;
13660;SDS011;6903;49.480;11.102;2022-09-20T02:32:14;17.47;;;8.93;;
13660;SDS011;6903;49.480;11.102;2022-09-20T02:35:13;18.93;;;11.20;;
13660;SDS011;6903;49.480;11.102;2022-09-20T02:55:01;20.90;;;10.33;;
13660;SDS011;6903;49.480;11.102;2022-09-20T03:00:03;17.50;;;10.53;;
13660;SDS011;6903;49.480;11.102;2022-09-20T03:02:42;23.73;;;12.67;;
13660;SDS011;6903;49.480;11.102;2022-09-20T03:05:49;21.00;;;12.07;;
13660;SDS011;6903;49.480;11.102;2022-09-20T03:14:29;18.73;;;10.97;;
13660;SDS011;6903;49.480;11.102;2022-09-20T03:31:02;25.50;;;14.33;;
13660;SDS011;6903;49.480;11.102;2022-09-20T03:41:44;22.23;;;11.33;;
13660;SDS011;6903;49.480;11.102;2022-09-20T03:47:23;31.27;;;14.23;;
13660;SDS011;6903;49.480;11.102;2022-09-20T03:50:00;26.13;;;13.43;;
13660;SDS011;6903;49.480;11.102;2022-09-20T03:55:56;26.50;;;14.70;;
13660;SDS011;6903;49.480;11.102;2022-09-20T03:58:44;24.17;;;13.60;;
13660;SDS011;6903;49.480;11.102;2022-09-20T04:10:10;25.53;;;13.70;;
13660;SDS011;6903;49.480;11.102;2022-09-20T04:12:41;29.50;;;13.30;;
13660;SDS011;6903;49.480;11.102;2022-09-20T04:15:29;25.33;;;13.30;;
13660;SDS011;6903;49.480;11.102;2022-09-20T04:18:11;15.37;;;8.90;;
13660;SDS011;6903;49.480;11.102;2022-09-20T04:20:49;23.37;;;11.97;;
13660;SDS011;6903;49.480;11.102;2022-09-20T04:25:56;22.20;;;13.23;;
13660;SDS011;6903;49.480;11.102;2022-09-20T04:28:47;32.13;;;13.30;;
13660;SDS011;6903;49.480;11.102;2022-09-20T04:31:24;26.43;;;13.53;;
13660;SDS011;6903;49.480;11.102;2022-09-20T04:34:00;25.67;;;12.50;;
13660;SDS011;6903;49.480;11.102;2022-09-20T04:50:49;30.00;;;12.40;;
13660;SDS011;6903;49.480;11.102;2022-09-20T04:53:46;23.93;;;12.87;;
13660;SDS011;6903;49.480;11.102;2022-09-20T04:56:48;25.53;;;13.57;;
13660;SDS011;6903;49.480;11.102;2022-09-20T05:02:16;27.17;;;12.83;;
13660;SDS011;6903;49.480;11.102;2022-09-20T05:15:57;28.87;;;14.00;;
13660;SDS011;6903;49.480;11.102;2022-09-20T05:30:05;26.10;;;12.50;;
13660;SDS011;6903;49.480;11.102;2022-09-20T05:38:42;27.37;;;15.60;;
13660;SDS011;6903;49.480;11.102;2022-09-20T05:55:21;24.83;;;14.70;;
13660;SDS011;6903;49.480;11.102;2022-09-20T06:01:25;20.90;;;11.40;;
13660;SDS011;6903;49.480;11.102;2022-09-20T06:04:15;28.10;;;14.90;;
13660;SDS011;6903;49.480;11.102;2022-09-20T06:06:56;23.27;;;13.77;;
13660;SDS011;6903;49.480;11.102;2022-09-20T06:09:44;20.63;;;11.53;;
13660;SDS011;6903;49.480;11.102;2022-09-20T06:15:17;28.70;;;15.47;;
13660;SDS011;6903;49.480;11.102;2022-09-20T06:18:14;19.37;;;12.97;;
13660;SDS011;6903;49.480;11.102;2022-09-20T06:20:49;21.87;;;11.43;;
13660;SDS011;6903;49.480;11.102;2022-09-20T06:23:24;8.07;;;7.00;;
13660;SDS011;6903;49.480;11.102;2022-09-20T06:25:51;11.07;;;6.50;;
13660;SDS011;6903;49.480;11.102;2022-09-20T06:28:28;4.17;;;3.00;;
13660;SDS011;6903;49.480;11.102;2022-09-20T06:30:58;5.33;;;2.87;;
13660;SDS011;6903;49.480;11.102;2022-09-20T06:33:25;7.35;;;3.83;;
13660;SDS011;6903;49.480;11.102;2022-09-20T06:36:35;2.90;;;2.38;;
13660;SDS011;6903;49.480;11.102;2022-09-20T06:42:05;8.73;;;3.70;;
13660;SDS011;6903;49.480;11.102;2022-09-20T06:44:31;8.07;;;4.67;;
13660;SDS011;6903;49.480;11.102;2022-09-20T06:46:56;6.20;;;4.53;;
13660;SDS011;6903;49.480;11.102;2022-09-20T06:49:21;6.77;;;3.53;;
13660;SDS011;6903;49.480;11.102;2022-09-20T06:51:48;4.10;;;2.50;;
13660;SDS011;6903;49.480;11.102;2022-09-20T06:54:15;3.40;;;2.47;;
13660;SDS011;6903;49.480;11.102;2022-09-20T06:56:43;5.37;;;3.80;;
13660;SDS011;6903;49.480;11.102;2022-09-20T06:59:10;5.83;;;3.00;;
13660;SDS011;6903;49.480;11.102;2022-09-20T07:01:37;6.93;;;4.13;;
13660;SDS011;6903;49.480;11.102;2022-09-20T07:04:03;5.63;;;4.07;;
13660;SDS011;6903;49.480;11.102;2022-09-20T07:06:30;9.63;;;3.60;;
13660;SDS011;6903;49.480;11.102;2022-09-20T07:08:55;17.40;;;6.50;;
13660;SDS011;6903;49.480;11.102;2022-09-20T07:11:20;3.90;;;3.10;;
13660;SDS011;6903;49.480;11.102;2022-09-20T07:13:50;7.63;;;3.63;;
13660;SDS011;6903;49.480;11.102;2022-09-20T07:16:18;5.13;;;2.83;;
13660;SDS011;6903;49.480;11.102;2022-09-20T07:18:44;9.17;;;5.00;;
13660;SDS011;6903;49.480;11.102;2022-09-20T07:21:11;6.53;;;4.50;;
13660;SDS011;6903;49.480;11.102;2022-09-20T07:23:37;17.27;;;5.33;;
13660;SDS011;6903;49.480;11.102;2022-09-20T07:26:02;23.03;;;6.73;;
13660;SDS011;6903;49.480;11.102;2022-09-20T07:28:29;40.43;;;8.77;;
13660;SDS011;6903;49.480;11.102;2022-09-20T07:30:55;8.73;;;4.57;;
13660;SDS011;6903;49.480;11.102;2022-09-20T07:33:21;7.40;;;4.30;;
13660;SDS011;6903;49.480;11.102;2022-09-20T07:35:49;33.53;;;7.40;;
13660;SDS011;6903;49.480;11.102;2022-09-20T07:38:18;25.50;;;7.07;;
13660;SDS011;6903;49.480;11.102;2022-09-20T07:40:45;9.70;;;5.00;;
13660;SDS011;6903;49.480;11.102;2022-09-20T07:43:10;19.53;;;6.93;;
13660;SDS011;6903;49.480;11.102;2022-09-20T07:45:37;7.73;;;4.37;;
13660;SDS011;6903;49.480;11.102;2022-09-20T07:48:03;17.07;;;7.57;;
13660;SDS011;6903;49.480;11.102;2022-09-20T07:50:31;39.53;;;10.40;;
13660;SDS011;6903;49.480;11.102;2022-09-20T07:52:57;12.57;;;5.10;;
13660;SDS011;6903;49.480;11.102;2022-09-20T07:55:23;13.03;;;6.93;;
13660;SDS011;6903;49.480;11.102;2022-09-20T07:57:48;7.53;;;5.80;;
13660;SDS011;6903;49.480;11.102;2022-09-20T08:00:15;8.60;;;5.20;;
13660;SDS011;6903;49.480;11.102;2022-09-20T08:02:41;12.17;;;7.40;;
13660;SDS011;6903;49.480;11.102;2022-09-20T08:05:08;9.97;;;5.70;;
13660;SDS011;6903;49.480;11.102;2022-09-20T08:07:34;9.70;;;4.97;;
13660;SDS011;6903;49.480;11.102;2022-09-20T08:10:00;11.47;;;5.70;;
13660;SDS011;6903;49.480;11.102;2022-09-20T08:12:25;5.30;;;3.10;;
13660;SDS011;6903;49.480;11.102;2022-09-20T08:14:51;8.80;;;4.53;;
13660;SDS011;6903;49.480;11.102;2022-09-20T08:17:17;11.77;;;5.10;;
13660;SDS011;6903;49.480;11.102;2022-09-20T08:19:43;9.87;;;5.10;;
13660;SDS011;6903;49.480;11.102;2022-09-20T08:22:09;8.77;;;4.17;;
13660;SDS011;6903;49.480;11.102;2022-09-20T08:24:36;6.57;;;3.53;;
13660;SDS011;6903;49.480;11.102;2022-09-20T08:27:02;3.77;;;2.70;;
13660;SDS011;6903;49.480;11.102;2022-09-20T08:29:28;5.47;;;2.20;;
13660;SDS011;6903;49.480;11.102;2022-09-20T08:31:53;32.07;;;6.33;;
13660;SDS011;6903;49.480;11.102;2022-09-20T08:34:22;7.97;;;3.70;;
13660;SDS011;6903;49.480;11.102;2022-09-20T08:36:48;7.27;;;3.00;;
13660;SDS011;6903;49.480;11.102;2022-09-20T08:39:16;8.82;;;2.63;;
13660;SDS011;6903;49.480;11.102;2022-09-20T08:41:50;6.53;;;2.60;;
13660;SDS011;6903;49.480;11.102;2022-09-20T08:44:27;10.07;;;3.20;;
13660;SDS011;6903;49.480;11.102;2022-09-20T08:47:02;7.50;;;2.53;;
13660;SDS011;6903;49.480;11.102;2022-09-20T08:49:41;4.50;;;2.20;;
13660;SDS011;6903;49.480;11.102;2022-09-20T08:52:08;7.25;;;2.97;;
13660;SDS011;6903;49.480;11.102;2022-09-20T08:54:40;7.63;;;3.30;;
13660;SDS011;6903;49.480;11.102;2022-09-20T08:57:13;8.13;;;2.73;;
13660;SDS011;6903;49.480;11.102;2022-09-20T08:59:41;7.73;;;3.03;;
13660;SDS011;6903;49.480;11.102;2022-09-20T09:02:16;4.83;;;2.13;;
13660;SDS011;6903;49.480;11.102;2022-09-20T09:04:44;6.80;;;2.83;;
13660;SDS011;6903;49.480;11.102;2022-09-20T09:07:13;6.35;;;2.70;;
13660;SDS011;6903;49.480;11.102;2022-09-20T09:09:42;5.07;;;2.63;;
13660;SDS011;6903;49.480;11.102;2022-09-20T09:12:16;7.60;;;3.85;;
13660;SDS011;6903;49.480;11.102;2022-09-20T09:14:47;6.05;;;2.78;;
13660;SDS011;6903;49.480;11.102;2022-09-20T09:17:19;5.60;;;3.00;;
13660;SDS011;6903;49.480;11.102;2022-09-20T09:19:51;4.90;;;2.40;;
13660;SDS011;6903;49.480;11.102;2022-09-20T09:22:28;9.77;;;2.60;;
13660;SDS011;6903;49.480;11.102;2022-09-20T09:25:05;4.87;;;2.30;;
13660;SDS011;6903;49.480;11.102;2022-09-20T09:27:49;8.15;;;2.90;;
13660;SDS011;6903;49.480;11.102;2022-09-20T09:30:22;5.63;;;2.10;;
13660;SDS011;6903;49.480;11.102;2022-09-20T09:32:51;8.07;;;2.28;;
13660;SDS011;6903;49.480;11.102;2022-09-20T09:35:37;5.45;;;1.75;;
13660;SDS011;6903;49.480;11.102;2022-09-20T09:38:02;6.68;;;2.17;;
13660;SDS011;6903;49.480;11.102;2022-09-20T09:40:28;5.43;;;1.92;;
13660;SDS011;6903;49.480;11.102;2022-09-20T09:42:59;4.20;;;1.75;;
13660;SDS011;6903;49.480;11.102;2022-09-20T09:45:33;6.35;;;1.90;;
13660;SDS011;6903;49.480;11.102;2022-09-20T09:48:15;3.58;;;1.33;;
13660;SDS011;6903;49.480;11.102;2022-09-20T09:50:47;4.43;;;1.60;;
13660;SDS011;6903;49.480;11.102;2022-09-20T09:53:22;6.43;;;1.63;;
13660;SDS011;6903;49.480;11.102;2022-09-20T09:58:27;3.40;;;1.27;;
13660;SDS011;6903;49.480;11.102;2022-09-20T10:01:09;2.15;;;1.30;;
13660;SDS011;6903;49.480;11.102;2022-09-20T10:03:45;2.67;;;1.27;;
13660;SDS011;6903;49.480;11.102;2022-09-20T10:06:58;1.25;;;0.90;;
13660;SDS011;6903;49.480;11.102;2022-09-20T10:12:44;11.52;;;1.65;;
13660;SDS011;6903;49.480;11.102;2022-09-20T10:15:35;3.05;;;1.60;;
13660;SDS011;6903;49.480;11.102;2022-09-20T10:18:26;2.28;;;1.20;;
13660;SDS011;6903;49.480;11.102;2022-09-20T10:21:05;4.35;;;1.30;;
13660;SDS011;6903;49.480;11.102;2022-09-20T10:26:23;4.07;;;1.30;;
13660;SDS011;6903;49.480;11.102;2022-09-20T10:34:34;2.80;;;1.33;;
13660;SDS011;6903;49.480;11.102;2022-09-20T10:37:23;8.13;;;3.97;;
13660;SDS011;6903;49.480;11.102;2022-09-20T10:42:48;4.13;;;1.50;;
13660;SDS011;6903;49.480;11.102;2022-09-20T10:49:02;3.80;;;1.40;;
13660;SDS011;6903;49.480;11.102;2022-09-20T10:54:34;4.88;;;2.05;;
13660;SDS011;6903;49.480;11.102;2022-09-20T10:57:15;6.80;;;2.67;;
13660;SDS011;6903;49.480;11.102;2022-09-20T11:02:45;5.38;;;2.83;;
13660;SDS011;6903;49.480;11.102;2022-09-20T11:05:20;6.20;;;2.50;;
13660;SDS011;6903;49.480;11.102;2022-09-20T11:10:24;9.65;;;3.10;;
13660;SDS011;6903;49.480;11.102;2022-09-20T11:12:59;16.65;;;3.92;;
13660;SDS011;6903;49.480;11.102;2022-09-20T11:15:34;14.88;;;3.58;;
13660;SDS011;6903;49.480;11.102;2022-09-20T11:18:09;5.93;;;2.38;;
13660;SDS011;6903;49.480;11.102;2022-09-20T11:26:29;4.15;;;2.13;;
13660;SDS011;6903;49.480;11.102;2022-09-20T11:29:03;11.45;;;2.63;;
13660;SDS011;6903;49.480;11.102;2022-09-20T11:31:34;4.35;;;1.58;;
13660;SDS011;6903;49.480;11.102;2022-09-20T11:34:15;5.85;;;1.90;;
13660;SDS011;6903;49.480;11.102;2022-09-20T11:36:56;2.42;;;1.42;;
13660;SDS011;6903;49.480;11.102;2022-09-20T11:42:12;4.60;;;1.67;;
13660;SDS011;6903;49.480;11.102;2022-09-20T11:44:41;2.50;;;1.40;;
13660;SDS011;6903;49.480;11.102;2022-09-20T11:47:16;7.38;;;1.75;;
13660;SDS011;6903;49.480;11.102;2022-09-20T11:50:06;5.47;;;2.15;;
13660;SDS011;6903;49.480;11.102;2022-09-20T11:56:16;4.70;;;1.30;;
13660;SDS011;6903;49.480;11.102;2022-09-20T11:58:46;13.68;;;2.60;;
13660;SDS011;6903;49.480;11.102;2022-09-20T12:01:15;5.20;;;1.52;;
13660;SDS011;6903;49.480;11.102;2022-09-20T12:03:51;3.67;;;1.30;;
13660;SDS011;6903;49.480;11.102;2022-09-20T12:08:53;4.55;;;1.30;;
13660;SDS011;6903;49.480;11.102;2022-09-20T12:11:28;4.03;;;1.40;;
13660;SDS011;6903;49.480;11.102;2022-09-20T12:14:00;2.92;;;1.30;;
13660;SDS011;6903;49.480;11.102;2022-09-20T12:16:36;3.15;;;1.50;;
13660;SDS011;6903;49.480;11.102;2022-09-20T12:19:10;3.13;;;1.30;;
13660;SDS011;6903;49.480;11.102;2022-09-20T12:26:57;2.53;;;1.23;;
13660;SDS011;6903;49.480;11.102;2022-09-20T12:31:53;2.58;;;1.20;;
13660;SDS011;6903;49.480;11.102;2022-09-20T12:39:19;2.08;;;1.20;;
13660;SDS011;6903;49.480;11.102;2022-09-20T12:44:42;2.67;;;1.10;;
13660;SDS011;6903;49.480;11.102;2022-09-20T12:47:20;1.45;;;1.10;;
13660;SDS011;6903;49.480;11.102;2022-09-20T12:58:20;3.47;;;1.00;;
13660;SDS011;6903;49.480;11.102;2022-09-20T13:14:15;3.00;;;1.20;;
13660;SDS011;6903;49.480;11.102;2022-09-20T13:19:32;2.58;;;1.10;;
13660;SDS011;6903;49.480;11.102;2022-09-20T13:22:05;2.78;;;1.10;;
13660;SDS011;6903;49.480;11.102;2022-09-20T13:24:42;2.17;;;1.02;;
13660;SDS011;6903;49.480;11.102;2022-09-20T13:27:11;1.73;;;1.10;;
13660;SDS011;6903;49.480;11.102;2022-09-20T13:29:42;1.33;;;0.95;;
13660;SDS011;6903;49.480;11.102;2022-09-20T13:32:28;2.42;;;1.00;;
13660;SDS011;6903;49.480;11.102;2022-09-20T13:35:14;1.98;;;1.00;;
13660;SDS011;6903;49.480;11.102;2022-09-20T13:40:19;2.05;;;1.10;;
13660;SDS011;6903;49.480;11.102;2022-09-20T13:42:59;2.67;;;1.10;;
13660;SDS011;6903;49.480;11.102;2022-09-20T13:45:27;2.25;;;1.10;;
13660;SDS011;6903;49.480;11.102;2022-09-20T13:47:53;3.03;;;1.15;;
13660;SDS011;6903;49.480;11.102;2022-09-20T13:52:51;4.22;;;1.38;;
13660;SDS011;6903;49.480;11.102;2022-09-20T14:00:59;1.67;;;0.90;;
13660;SDS011;6903;49.480;11.102;2022-09-20T14:03:27;2.55;;;1.10;;
13660;SDS011;6903;49.480;11.102;2022-09-20T14:06:08;3.33;;;1.10;;
13660;SDS011;6903;49.480;11.102;2022-09-20T14:08:40;2.28;;;1.08;;
13660;SDS011;6903;49.480;11.102;2022-09-20T14:13:36;1.63;;;0.80;;
13660;SDS011;6903;49.480;11.102;2022-09-20T14:16:05;4.13;;;1.40;;
13660;SDS011;6903;49.480;11.102;2022-09-20T14:18:31;2.65;;;1.02;;
13660;SDS011;6903;49.480;11.102;2022-09-20T14:20:58;2.72;;;1.40;;
13660;SDS011;6903;49.480;11.102;2022-09-20T14:23:25;2.45;;;1.20;;
13660;SDS011;6903;49.480;11.102;2022-09-20T14:26:04;2.03;;;0.93;;
13660;SDS011;6903;49.480;11.102;2022-09-20T14:28:46;2.45;;;1.00;;
13660;SDS011;6903;49.480;11.102;2022-09-20T14:31:12;2.42;;;1.00;;
13660;SDS011;6903;49.480;11.102;2022-09-20T14:33:43;1.70;;;1.00;;
13660;SDS011;6903;49.480;11.102;2022-09-20T14:36:12;2.08;;;0.98;;
13660;SDS011;6903;49.480;11.102;2022-09-20T14:38:41;3.72;;;1.17;;
13660;SDS011;6903;49.480;11.102;2022-09-20T14:41:08;2.65;;;1.00;;
13660;SDS011;6903;49.480;11.102;2022-09-20T14:43:33;2.30;;;0.93;;
13660;SDS011;6903;49.480;11.102;2022-09-20T14:46:01;2.38;;;1.00;;
13660;SDS011;6903;49.480;11.102;2022-09-20T14:48:36;1.17;;;0.77;;
13660;SDS011;6903;49.480;11.102;2022-09-20T14:53:40;1.52;;;0.90;;
13660;SDS011;6903;49.480;11.102;2022-09-20T14:56:08;1.17;;;0.77;;
13660;SDS011;6903;49.480;11.102;2022-09-20T15:01:26;2.92;;;1.08;;
13660;SDS011;6903;49.480;11.102;2022-09-20T15:03:52;2.95;;;1.17;;
13660;SDS011;6903;49.480;11.102;2022-09-20T15:06:17;2.92;;;1.08;;
13660;SDS011;6903;49.480;11.102;2022-09-20T15:08:43;1.98;;;0.90;;
13660;SDS011;6903;49.480;11.102;2022-09-20T15:11:13;1.52;;;0.90;;
13660;SDS011;6903;49.480;11.102;2022-09-20T15:13:39;1.73;;;1.20;;
13660;SDS011;6903;49.480;11.102;2022-09-20T15:16:05;2.63;;;1.00;;
13660;SDS011;6903;49.480;11.102;2022-09-20T15:18:33;1.45;;;1.23;;
13660;SDS011;6903;49.480;11.102;2022-09-20T15:21:01;2.10;;;0.90;;
13660;SDS011;6903;49.480;11.102;2022-09-20T15:23:26;1.35;;;0.80;;
13660;SDS011;6903;49.480;11.102;2022-09-20T15:25:52;2.13;;;0.90;;
13660;SDS011;6903;49.480;11.102;2022-09-20T15:28:19;7.57;;;1.25;;
13660;SDS011;6903;49.480;11.102;2022-09-20T15:30:45;2.25;;;1.08;;
13660;SDS011;6903;49.480;11.102;2022-09-20T15:33:13;2.17;;;1.10;;
13660;SDS011;6903;49.480;11.102;2022-09-20T15:35:39;1.30;;;1.20;;
13660;SDS011;6903;49.480;11.102;2022-09-20T15:38:05;2.80;;;1.60;;
13660;SDS011;6903;49.480;11.102;2022-09-20T15:40:33;4.70;;;1.63;;
13660;SDS011;6903;49.480;11.102;2022-09-20T15:42:59;4.50;;;1.73;;
13660;SDS011;6903;49.480;11.102;2022-09-20T15:45:24;7.97;;;3.67;;
13660;SDS011;6903;49.480;11.102;2022-09-20T15:47:52;8.40;;;3.97;;
13660;SDS011;6903;49.480;11.102;2022-09-20T15:50:19;6.83;;;3.57;;
13660;SDS011;6903;49.480;11.102;2022-09-20T15:52:47;5.00;;;2.90;;
13660;SDS011;6903;49.480;11.102;2022-09-20T15:55:13;6.70;;;3.80;;
13660;SDS011;6903;49.480;11.102;2022-09-20T15:57:38;6.70;;;4.10;;
13660;SDS011;6903;49.480;11.102;2022-09-20T16:00:05;8.40;;;4.37;;
13660;SDS011;6903;49.480;11.102;2022-09-20T16:02:31;9.03;;;5.13;;
13660;SDS011;6903;49.480;11.102;2022-09-20T16:04:56;9.83;;;5.17;;
13660;SDS011;6903;49.480;11.102;2022-09-20T16:07:23;5.60;;;4.13;;
13660;SDS011;6903;49.480;11.102;2022-09-20T16:09:50;6.03;;;4.73;;
13660;SDS011;6903;49.480;11.102;2022-09-20T16:12:16;6.70;;;4.50;;
13660;SDS011;6903;49.480;11.102;2022-09-20T16:14:42;10.67;;;4.87;;
13660;SDS011;6903;49.480;11.102;2022-09-20T16:17:07;3.50;;;3.20;;
13660;SDS011;6903;49.480;11.102;2022-09-20T16:19:32;4.47;;;3.00;;
13660;SDS011;6903;49.480;11.102;2022-09-20T16:21:58;3.70;;;2.70;;
13660;SDS011;6903;49.480;11.102;2022-09-20T16:24:24;4.23;;;2.27;;
13660;SDS011;6903;49.480;11.102;2022-09-20T16:26:51;3.40;;;2.77;;
13660;SDS011;6903;49.480;11.102;2022-09-20T16:29:17;5.87;;;3.30;;
13660;SDS011;6903;49.480;11.102;2022-09-20T16:31:43;3.60;;;2.40;;
13660;SDS011;6903;49.480;11.102;2022-09-20T16:34:16;5.23;;;2.40;;
13660;SDS011;6903;49.480;11.102;2022-09-20T16:36:44;4.43;;;2.30;;
13660;SDS011;6903;49.480;11.102;2022-09-20T16:39:11;3.57;;;2.00;;
13660;SDS011;6903;49.480;11.102;2022-09-20T16:41:37;5.27;;;3.00;;
13660;SDS011;6903;49.480;11.102;2022-09-20T16:44:03;5.60;;;2.57;;
13660;SDS011;6903;49.480;11.102;2022-09-20T16:46:30;2.30;;;1.80;;
13660;SDS011;6903;49.480;11.102;2022-09-20T16:48:56;3.60;;;2.00;;
13660;SDS011;6903;49.480;11.102;2022-09-20T16:51:28;1.67;;;1.17;;
13660;SDS011;6903;49.480;11.102;2022-09-20T16:53:55;1.43;;;0.97;;
13660;SDS011;6903;49.480;11.102;2022-09-20T16:56:22;1.37;;;1.20;;
13660;SDS011;6903;49.480;11.102;2022-09-20T16:58:50;2.60;;;1.50;;
13660;SDS011;6903;49.480;11.102;2022-09-20T17:01:15;2.47;;;1.87;;
13660;SDS011;6903;49.480;11.102;2022-09-20T17:03:41;1.73;;;1.50;;
13660;SDS011;6903;49.480;11.102;2022-09-20T17:06:10;3.07;;;2.10;;
13660;SDS011;6903;49.480;11.102;2022-09-20T17:08:36;3.57;;;2.20;;
13660;SDS011;6903;49.480;11.102;2022-09-20T17:11:12;5.70;;;3.17;;
13660;SDS011;6903;49.480;11.102;2022-09-20T17:13:42;3.63;;;2.80;;
13660;SDS011;6903;49.480;11.102;2022-09-20T17:16:10;5.40;;;3.23;;
13660;SDS011;6903;49.480;11.102;2022-09-20T17:18:36;4.20;;;3.80;;
13660;SDS011;6903;49.480;11.102;2022-09-20T17:21:06;5.70;;;4.53;;
13660;SDS011;6903;49.480;11.102;2022-09-20T17:23:42;8.03;;;5.10;;
13660;SDS011;6903;49.480;11.102;2022-09-20T17:26:13;7.33;;;5.17;;
13660;SDS011;6903;49.480;11.102;2022-09-20T17:28:42;6.37;;;3.70;;
13660;SDS011;6903;49.480;11.102;2022-09-20T17:31:10;5.93;;;3.90;;
13660;SDS011;6903;49.480;11.102;2022-09-20T17:33:37;5.17;;;3.57;;
13660;SDS011;6903;49.480;11.102;2022-09-20T17:36:04;5.13;;;3.53;;
13660;SDS011;6903;49.480;11.102;2022-09-20T17:38:31;4.50;;;3.60;;
13660;SDS011;6903;49.480;11.102;2022-09-20T17:41:02;6.13;;;3.90;;
13660;SDS011;6903;49.480;11.102;2022-09-20T17:43:32;6.00;;;4.00;;
13660;SDS011;6903;49.480;11.102;2022-09-20T17:46:15;4.83;;;3.83;;
13660;SDS011;6903;49.480;11.102;2022-09-20T17:48:44;4.13;;;3.27;;
13660;SDS011;6903;49.480;11.102;2022-09-20T17:51:13;10.77;;;8.33;;
13660;SDS011;6903;49.480;11.102;2022-09-20T17:53:40;6.50;;;4.50;;
13660;SDS011;6903;49.480;11.102;2022-09-20T17:56:06;6.60;;;4.63;;
13660;SDS011;6903;49.480;11.102;2022-09-20T17:58:32;7.53;;;5.20;;
13660;SDS011;6903;49.480;11.102;2022-09-20T18:01:03;6.90;;;4.17;;
13660;SDS011;6903;49.480;11.102;2022-09-20T18:03:32;8.40;;;4.93;;
13660;SDS011;6903;49.480;11.102;2022-09-20T18:06:00;7.40;;;4.73;;
13660;SDS011;6903;49.480;11.102;2022-09-20T18:08:34;8.63;;;4.87;;
13660;SDS011;6903;49.480;11.102;2022-09-20T18:10:59;7.67;;;4.50;;
13660;SDS011;6903;49.480;11.102;2022-09-20T18:13:24;9.73;;;5.00;;
13660;SDS011;6903;49.480;11.102;2022-09-20T18:15:52;8.63;;;4.83;;
13660;SDS011;6903;49.480;11.102;2022-09-20T18:18:18;10.80;;;5.17;;
13660;SDS011;6903;49.480;11.102;2022-09-20T18:20:44;8.87;;;5.60;;
13660;SDS011;6903;49.480;11.102;2022-09-20T18:23:09;10.63;;;6.43;;
13660;SDS011;6903;49.480;11.102;2022-09-20T18:25:35;27.97;;;23.10;;
13660;SDS011;6903;49.480;11.102;2022-09-20T18:28:20;25.67;;;20.27;;
13660;SDS011;6903;49.480;11.102;2022-09-20T18:30:45;27.07;;;20.67;;
13660;SDS011;6903;49.480;11.102;2022-09-20T18:33:11;23.80;;;17.87;;
13660;SDS011;6903;49.480;11.102;2022-09-20T18:35:40;21.23;;;15.13;;
13660;SDS011;6903;49.480;11.102;2022-09-20T18:38:09;18.27;;;11.40;;
13660;SDS011;6903;49.480;11.102;2022-09-20T18:40:36;20.87;;;13.90;;
13660;SDS011;6903;49.480;11.102;2022-09-20T18:43:02;11.40;;;7.87;;
13660;SDS011;6903;49.480;11.102;2022-09-20T18:45:29;11.00;;;7.70;;
13660;SDS011;6903;49.480;11.102;2022-09-20T18:47:54;16.67;;;10.60;;
13660;SDS011;6903;49.480;11.102;2022-09-20T18:50:21;14.17;;;9.97;;
13660;SDS011;6903;49.480;11.102;2022-09-20T18:52:50;18.33;;;11.97;;
13660;SDS011;6903;49.480;11.102;2022-09-20T18:55:16;13.83;;;9.17;;
13660;SDS011;6903;49.480;11.102;2022-09-20T18:57:41;25.50;;;11.10;;
13660;SDS011;6903;49.480;11.102;2022-09-20T19:00:08;21.40;;;11.03;;
13660;SDS011;6903;49.480;11.102;2022-09-20T19:05:28;25.73;;;11.37;;
13660;SDS011;6903;49.480;11.102;2022-09-20T19:08:05;16.10;;;9.70;;
13660;SDS011;6903;49.480;11.102;2022-09-20T19:10:58;19.57;;;11.63;;
13660;SDS011;6903;49.480;11.102;2022-09-20T19:13:30;19.07;;;12.07;;
13660;SDS011;6903;49.480;11.102;2022-09-20T19:24:46;18.93;;;11.73;;
13660;SDS011;6903;49.480;11.102;2022-09-20T19:27:14;22.97;;;13.57;;
13660;SDS011;6903;49.480;11.102;2022-09-20T19:29:39;26.13;;;15.87;;
13660;SDS011;6903;49.480;11.102;2022-09-20T19:32:08;24.43;;;13.27;;
13660;SDS011;6903;49.480;11.102;2022-09-20T19:34:39;28.37;;;15.80;;
13660;SDS011;6903;49.480;11.102;2022-09-20T19:37:13;34.43;;;16.70;;
13660;SDS011;6903;49.480;11.102;2022-09-20T19:42:33;87.50;;;24.07;;
13660;SDS011;6903;49.480;11.102;2022-09-20T19:45:39;35.40;;;15.03;;
13660;SDS011;6903;49.480;11.102;2022-09-20T19:51:04;29.87;;;16.67;;
13660;SDS011;6903;49.480;11.102;2022-09-20T19:53:34;40.57;;;17.40;;